Time;durP1;ratioP1;P1;durP2;ratioP2;P2;SDS_P1;SDS_P2;PMS_P1;PMS_P2;Temp;Humidity;BMP_temperature;BMP_pressure;BME280_temperature;BME280_humidity;BME280_pressure;Samples;Min_cycle;Max_cycle;Signal;HPM_P1;HPM_P2
2021/05/18 00:01:18;;;;;;;3.80;2.43;;;13.40;97.40;;;;;;5013143;28;20624;-50
2021/05/18 00:03:45;;;;;;;1.60;1.50;;;13.40;97.30;;;;;;5013323;28;20693;-51
2021/05/18 00:06:12;;;;;;;2.10;1.97;;;13.40;97.30;;;;;;5013044;28;20988;-51
2021/05/18 00:14:06;;;;;;;3.60;2.23;;;13.50;97.20;;;;;;5013062;28;21038;-50
2021/05/18 00:16:32;;;;;;;3.20;2.00;;;13.40;97.10;;;;;;5013373;28;20729;-50
2021/05/18 00:18:59;;;;;;;2.60;1.97;;;13.50;97.10;;;;;;5013166;28;20681;-51
2021/05/18 00:21:26;;;;;;;2.17;1.97;;;13.40;97.00;;;;;;5012996;28;20678;-50
2021/05/18 00:23:52;;;;;;;2.40;2.20;;;13.40;97.10;;;;;;5012182;28;20639;-50
2021/05/18 00:26:19;;;;;;;2.30;1.80;;;13.40;97.20;;;;;;5013139;28;20667;-50
2021/05/18 00:28:46;;;;;;;2.43;1.87;;;13.40;97.20;;;;;;5011793;28;20976;-50
2021/05/18 00:31:14;;;;;;;4.77;1.47;;;13.40;97.20;;;;;;5013047;28;20658;-51
2021/05/18 00:33:42;;;;;;;2.53;2.00;;;13.30;97.10;;;;;;5013284;28;20727;-51
2021/05/18 00:36:09;;;;;;;2.20;2.00;;;13.30;97.10;;;;;;5012422;28;20750;-51
2021/05/18 00:38:36;;;;;;;3.67;2.27;;;13.40;97.20;;;;;;5012065;28;20623;-51
2021/05/18 00:41:03;;;;;;;2.87;1.67;;;13.40;97.10;;;;;;5012368;28;20678;-51
2021/05/18 00:43:30;;;;;;;1.93;1.83;;;13.40;97.00;;;;;;5013315;28;20631;-51
2021/05/18 00:45:57;;;;;;;1.90;1.70;;;13.40;97.00;;;;;;5012632;28;21196;-51
2021/05/18 00:48:25;;;;;;;2.43;2.20;;;13.40;97.00;;;;;;5012559;28;20701;-50
2021/05/18 00:50:53;;;;;;;2.37;1.30;;;13.40;96.90;;;;;;5012475;28;20635;-50
2021/05/18 00:53:19;;;;;;;2.13;1.87;;;13.40;96.90;;;;;;5012627;28;20693;-51
2021/05/18 00:55:50;;;;;;;3.63;1.67;;;13.40;97.00;;;;;;5012591;28;20675;-52
2021/05/18 00:58:31;;;;;;;2.60;2.10;;;13.40;96.90;;;;;;5012192;28;20620;-51
2021/05/18 01:01:00;;;;;;;5.07;2.50;;;13.40;96.80;;;;;;5012470;28;20689;-52
2021/05/18 01:03:27;;;;;;;3.47;2.07;;;13.40;96.80;;;;;;5012355;28;20659;-51
2021/05/18 01:08:39;;;;;;;2.10;1.73;;;13.40;96.80;;;;;;5012096;28;20711;-51
2021/05/18 01:11:06;;;;;;;1.90;1.80;;;13.40;96.80;;;;;;5016358;28;20693;-51
2021/05/18 01:13:34;;;;;;;4.07;2.20;;;13.40;96.80;;;;;;5031508;28;20623;-51
2021/05/18 01:16:01;;;;;;;1.67;1.57;;;13.40;96.80;;;;;;5019993;28;21252;-51
2021/05/18 01:18:29;;;;;;;3.20;1.53;;;13.40;96.80;;;;;;5011435;28;20767;-51
2021/05/18 01:20:57;;;;;;;2.93;2.10;;;13.30;96.80;;;;;;5017776;28;20716;-51
2021/05/18 01:23:24;;;;;;;1.87;1.33;;;13.30;96.90;;;;;;5031330;28;20681;-51
2021/05/18 01:25:50;;;;;;;4.70;2.03;;;13.40;96.90;;;;;;5031346;28;20723;-51
2021/05/18 01:28:17;;;;;;;3.10;1.60;;;13.40;96.90;;;;;;5029511;28;21285;-52
2021/05/18 01:30:44;;;;;;;6.63;1.80;;;13.40;96.90;;;;;;5014437;28;20723;-51
2021/05/18 01:33:11;;;;;;;3.20;1.90;;;13.40;96.80;;;;;;5011399;28;20686;-51
2021/05/18 01:35:38;;;;;;;6.13;1.97;;;13.40;96.80;;;;;;5011693;28;20668;-51
2021/05/18 01:38:09;;;;;;;3.10;1.80;;;13.40;96.80;;;;;;5011186;28;20975;-50
2021/05/18 01:43:20;;;;;;;3.03;2.20;;;13.40;96.70;;;;;;5026527;28;20682;-51
2021/05/18 01:45:47;;;;;;;1.70;1.53;;;13.40;96.70;;;;;;5027125;28;20726;-51
2021/05/18 01:48:16;;;;;;;3.53;2.20;;;13.30;96.70;;;;;;5029371;28;20696;-51
2021/05/18 01:50:44;;;;;;;2.40;2.20;;;13.40;96.80;;;;;;5027155;28;20620;-50
2021/05/18 01:53:12;;;;;;;2.90;2.17;;;13.40;96.90;;;;;;5012603;28;20636;-51
2021/05/18 01:55:41;;;;;;;1.87;1.77;;;13.30;96.80;;;;;;5011203;28;20754;-50
2021/05/18 01:58:08;;;;;;;2.60;1.97;;;13.40;96.80;;;;;;5010778;28;20628;-51
2021/05/18 02:00:37;;;;;;;2.60;1.87;;;13.30;96.70;;;;;;5013792;28;20628;-50
2021/05/18 02:03:04;;;;;;;2.43;2.23;;;13.30;96.70;;;;;;5031034;28;20688;-50
2021/05/18 02:05:32;;;;;;;3.13;1.97;;;13.30;96.70;;;;;;5015648;28;20666;-50
2021/05/18 02:07:59;;;;;;;2.37;1.80;;;13.30;96.70;;;;;;5010614;28;20650;-50
2021/05/18 02:10:27;;;;;;;2.67;1.90;;;13.40;96.70;;;;;;5011402;28;20632;-51
2021/05/18 02:12:54;;;;;;;1.90;1.70;;;13.40;96.70;;;;;;5010809;28;20705;-51
2021/05/18 02:15:30;;;;;;;3.50;1.73;;;13.40;96.70;;;;;;5010699;28;20656;-52
2021/05/18 02:18:21;;;;;;;2.57;1.70;;;13.40;96.60;;;;;;5010762;28;20693;-51
2021/05/18 02:20:51;;;;;;;2.07;1.87;;;13.50;96.50;;;;;;5011050;28;21153;-51
2021/05/18 02:26:03;;;;;;;2.20;1.50;;;13.40;96.40;;;;;;5010739;28;20693;-51
2021/05/18 02:28:30;;;;;;;2.70;2.07;;;13.40;96.40;;;;;;5021811;28;20661;-51
2021/05/18 02:30:57;;;;;;;2.50;1.50;;;13.40;96.50;;;;;;5014107;28;21238;-50
2021/05/18 02:33:24;;;;;;;1.83;1.73;;;13.30;96.50;;;;;;5010673;28;21172;-50
2021/05/18 02:35:50;;;;;;;2.80;2.00;;;13.30;96.40;;;;;;5010020;28;20676;-50
2021/05/18 02:38:17;;;;;;;1.77;1.63;;;13.30;96.50;;;;;;5019980;28;20713;-50
2021/05/18 02:40:45;;;;;;;1.77;1.67;;;13.30;96.50;;;;;;5015208;28;20662;-51
2021/05/18 02:43:16;;;;;;;3.93;2.20;;;13.30;96.50;;;;;;5010619;28;20639;-51
2021/05/18 02:45:52;;;;;;;2.13;1.93;;;13.30;96.40;;;;;;5010492;28;20683;-51
2021/05/18 02:51:03;;;;;;;2.30;1.60;;;13.30;96.40;;;;;;5030043;28;20989;-51
2021/05/18 02:53:30;;;;;;;2.23;1.50;;;13.30;96.40;;;;;;5030155;28;20627;-51
2021/05/18 02:56:01;;;;;;;2.13;2.00;;;13.20;96.30;;;;;;5029927;28;21316;-52
2021/05/18 02:58:31;;;;;;;3.70;1.70;;;13.20;96.40;;;;;;5018764;28;20679;-51
2021/05/18 03:00:57;;;;;;;3.73;2.20;;;13.10;96.40;;;;;;5010371;28;20631;-51
2021/05/18 03:03:24;;;;;;;2.03;1.50;;;13.10;96.50;;;;;;5010405;28;20977;-51
2021/05/18 03:05:51;;;;;;;2.03;1.50;;;13.10;96.60;;;;;;5010053;28;20659;-51
2021/05/18 03:08:19;;;;;;;2.20;2.10;;;13.10;96.60;;;;;;5010022;28;20624;-51
2021/05/18 03:10:45;;;;;;;2.33;2.07;;;13.10;96.70;;;;;;5010216;28;21030;-51
2021/05/18 03:13:12;;;;;;;2.40;2.20;;;13.10;96.70;;;;;;5010413;28;20632;-51
2021/05/18 03:15:40;;;;;;;6.63;3.40;;;13.00;96.70;;;;;;5010140;28;20659;-52
2021/05/18 03:18:06;;;;;;;4.60;3.37;;;13.00;96.70;;;;;;5017073;28;20757;-51
2021/05/18 03:20:33;;;;;;;3.80;2.80;;;12.90;96.80;;;;;;5029735;28;20703;-51
2021/05/18 03:23:00;;;;;;;4.30;3.30;;;12.90;96.90;;;;;;5029694;28;20693;-52
2021/05/18 03:25:27;;;;;;;3.33;3.03;;;12.90;96.90;;;;;;5029993;28;20804;-51
2021/05/18 03:27:57;;;;;;;3.53;3.23;;;12.90;96.90;;;;;;5010094;28;20639;-51
2021/05/18 03:30:37;;;;;;;3.57;3.27;;;12.90;96.90;;;;;;5009920;28;20631;-50
2021/05/18 03:35:49;;;;;;;2.87;2.67;;;12.90;96.90;;;;;;5009612;28;20676;-51
2021/05/18 03:38:19;;;;;;;2.90;2.70;;;13.00;97.00;;;;;;5009628;28;20659;-51
2021/05/18 03:40:51;;;;;;;3.40;3.10;;;13.00;97.00;;;;;;5009996;28;20628;-51
2021/05/18 03:43:35;;;;;;;4.57;3.03;;;12.90;96.90;;;;;;5009746;28;20624;-51
2021/05/18 03:48:56;;;;;;;2.80;2.60;;;13.00;97.00;;;;;;5028415;28;20685;-51
2021/05/18 03:54:14;;;;;;;6.90;2.90;;;13.00;97.10;;;;;;4988730;28;20624;-51
2021/05/18 04:05:00;;;;;;;5.33;4.20;;;13.00;97.10;;;;;;5009085;28;20648;-51
2021/05/18 04:10:21;;;;;;;4.60;4.00;;;12.90;97.20;;;;;;5029526;28;20671;-51
2021/05/18 04:12:50;;;;;;;4.80;3.97;;;13.00;97.20;;;;;;5029466;28;20692;-52
2021/05/18 04:18:07;;;;;;;5.73;4.37;;;12.90;97.30;;;;;;5013259;28;20628;-52
2021/05/18 04:20:43;;;;;;;5.13;4.43;;;13.00;97.40;;;;;;5012596;28;20630;-51
2021/05/18 04:23:19;;;;;;;4.77;4.30;;;13.00;97.40;;;;;;5012791;28;20627;-52
2021/05/18 04:39:58;;;;;;;5.30;4.90;;;13.10;97.50;;;;;;5001792;28;20616;-52
2021/05/18 04:51:15;;;;;;;8.73;4.60;;;13.20;97.50;;;;;;4990338;28;20593;-52
2021/05/18 04:54:05;;;;;;;4.23;3.83;;;13.20;97.50;;;;;;4989303;28;20663;-51
2021/05/18 04:59:19;;;;;;;5.47;5.07;;;13.30;97.40;;;;;;5011640;28;20619;-52
2021/05/18 05:01:54;;;;;;;4.70;4.30;;;13.30;97.20;;;;;;5012336;28;21066;-51
2021/05/18 05:07:04;;;;;;;5.00;4.40;;;13.30;97.20;;;;;;5012065;28;21206;-50
2021/05/18 05:09:32;;;;;;;5.70;4.23;;;13.20;97.20;;;;;;5011412;28;20759;-51
2021/05/18 05:14:58;;;;;;;6.80;4.83;;;13.10;97.30;;;;;;4989207;28;20668;-51
2021/05/18 05:17:25;;;;;;;6.10;4.80;;;13.10;97.10;;;;;;4988910;28;20731;-52
2021/05/18 05:19:52;;;;;;;4.77;4.10;;;13.10;97.20;;;;;;5007156;28;20626;-51
2021/05/18 05:22:18;;;;;;;5.80;5.10;;;13.10;97.30;;;;;;5021548;28;20989;-51
2021/05/18 05:24:46;;;;;;;5.30;4.90;;;13.10;97.40;;;;;;5010923;28;20697;-51
2021/05/18 05:27:13;;;;;;;6.57;5.37;;;13.10;97.60;;;;;;5010806;28;20658;-52
2021/05/18 05:29:40;;;;;;;7.50;5.37;;;13.10;97.70;;;;;;5009254;28;20739;-53
2021/05/18 05:32:06;;;;;;;8.80;4.63;;;13.10;97.80;;;;;;5010720;28;20636;-53
2021/05/18 05:34:33;;;;;;;5.10;4.50;;;13.10;97.80;;;;;;5026385;28;20693;-51
2021/05/18 05:37:00;;;;;;;7.50;5.37;;;13.20;98.00;;;;;;5011877;28;20664;-51
2021/05/18 05:39:26;;;;;;;4.43;4.03;;;13.20;98.00;;;;;;5011028;28;20682;-53
2021/05/18 05:41:55;;;;;;;5.97;5.33;;;13.20;98.20;;;;;;5010735;28;20631;-52
2021/05/18 05:44:22;;;;;;;5.07;4.67;;;13.20;97.80;;;;;;5024470;28;20661;-52
2021/05/18 05:46:48;;;;;;;6.13;5.53;;;13.20;97.80;;;;;;5031315;28;20662;-53
2021/05/18 05:49:15;;;;;;;5.90;5.40;;;13.30;98.00;;;;;;5022781;28;20690;-52
2021/05/18 05:51:42;;;;;;;5.90;5.40;;;13.40;98.10;;;;;;5011364;28;20628;-52
2021/05/18 05:54:09;;;;;;;5.00;4.60;;;13.40;97.90;;;;;;5010920;28;20767;-53
2021/05/18 05:56:36;;;;;;;6.23;5.30;;;13.50;97.60;;;;;;5010955;28;20675;-51
2021/05/18 05:59:06;;;;;;;6.53;5.30;;;13.50;97.30;;;;;;5015747;28;20703;-50
2021/05/18 06:01:33;;;;;;;6.17;5.63;;;13.50;97.30;;;;;;5030510;28;20990;-52
2021/05/18 06:04:00;;;;;;;7.37;6.57;;;13.60;97.30;;;;;;5031089;28;20615;-52
2021/05/18 06:06:27;;;;;;;5.63;5.23;;;13.60;97.40;;;;;;5016035;28;20959;-52
2021/05/18 06:08:54;;;;;;;12.90;6.40;;;13.70;97.40;;;;;;5013460;28;20696;-52
2021/05/18 06:11:25;;;;;;;7.27;6.67;;;13.70;97.30;;;;;;5030913;28;20657;-51
2021/05/18 06:14:05;;;;;;;5.67;5.27;;;13.80;97.50;;;;;;5030057;28;20623;-51
2021/05/18 06:47:06;;;;;;;4.10;3.27;;;14.20;95.20;;;;;;5030036;28;20580;-51
2021/05/18 06:49:37;;;;;;;4.83;3.20;;;14.20;95.30;;;;;;5029520;28;20681;-51
2021/05/18 06:52:05;;;;;;;4.37;3.70;;;14.30;97.50;;;;;;5027587;28;20631;-51
2021/05/18 06:54:31;;;;;;;4.60;3.10;;;14.70;96.40;;;;;;5029595;28;20968;-51
2021/05/18 06:57:02;;;;;;;6.23;3.20;;;14.80;95.20;;;;;;5021754;28;20702;-51
2021/05/18 07:02:14;;;;;;;5.30;3.00;;;15.20;93.40;;;;;;5018024;28;20761;-50
2021/05/18 07:04:42;;;;;;;3.70;2.87;;;15.30;93.10;;;;;;5011778;28;20627;-52
2021/05/18 07:07:16;;;;;;;2.87;2.57;;;15.40;93.10;;;;;;4990654;28;20683;-52
2021/05/18 07:09:43;;;;;;;5.30;2.80;;;15.50;92.90;;;;;;4989883;28;20684;-52
2021/05/18 07:12:10;;;;;;;4.00;3.20;;;15.40;92.60;;;;;;4990018;28;20628;-52
2021/05/18 07:14:37;;;;;;;2.67;2.47;;;15.40;92.60;;;;;;4990345;28;20679;-53
2021/05/18 07:17:03;;;;;;;3.00;2.53;;;15.30;92.70;;;;;;4989728;28;20664;-53
2021/05/18 07:19:30;;;;;;;3.80;3.40;;;15.30;92.80;;;;;;4989315;28;20691;-52
2021/05/18 07:21:58;;;;;;;3.20;2.90;;;15.20;92.90;;;;;;4990433;28;20703;-55
2021/05/18 07:24:28;;;;;;;2.47;2.27;;;15.20;93.20;;;;;;4989600;28;20715;-52
2021/05/18 07:26:55;;;;;;;3.53;2.60;;;15.10;92.00;;;;;;4990141;28;20686;-55
2021/05/18 07:29:22;;;;;;;2.80;2.60;;;15.00;92.40;;;;;;4989799;28;20744;-54
2021/05/18 07:31:49;;;;;;;4.90;2.60;;;15.00;92.10;;;;;;4990232;28;20636;-53
2021/05/18 07:34:16;;;;;;;2.77;2.57;;;14.80;92.30;;;;;;4989901;28;20644;-54
2021/05/18 07:36:48;;;;;;;3.10;2.30;;;14.70;92.90;;;;;;5006982;28;20648;-54
2021/05/18 07:39:16;;;;;;;3.43;3.10;;;14.60;92.90;;;;;;5009227;28;20667;-54
2021/05/18 07:41:43;;;;;;;4.20;2.73;;;14.60;92.90;;;;;;5010060;28;20635;-50
2021/05/18 07:44:09;;;;;;;2.70;2.50;;;14.70;92.70;;;;;;5007258;28;20998;-51
2021/05/18 07:46:38;;;;;;;4.33;2.83;;;14.60;92.20;;;;;;5008690;28;20656;-50
2021/05/18 07:49:11;;;;;;;3.43;2.87;;;14.50;92.70;;;;;;5011014;28;20628;-50
2021/05/18 07:59:55;;;;;;;2.60;2.40;;;14.90;91.10;;;;;;5013349;28;21156;-51
2021/05/18 08:02:29;;;;;;;2.57;2.27;;;15.10;91.40;;;;;;5013202;28;20658;-51
2021/05/18 08:07:41;;;;;;;3.33;1.80;;;15.40;90.20;;;;;;5012952;28;20596;-51
2021/05/18 08:10:12;;;;;;;5.40;2.37;;;15.60;90.10;;;;;;5012693;28;20685;-51
2021/05/18 08:12:39;;;;;;;2.43;2.13;;;15.60;89.00;;;;;;5013389;28;21172;-51
2021/05/18 08:17:58;;;;;;;2.30;1.57;;;15.90;89.40;;;;;;5010735;28;20655;-51
2021/05/18 08:20:46;;;;;;;5.03;2.13;;;16.30;87.00;;;;;;5012754;28;20631;-51
2021/05/18 08:46:38;;;;;;;3.40;2.40;;;16.50;85.40;;;;;;5012434;28;20632;-52
2021/05/18 09:50:46;;;;;;;8.50;2.07;;;16.60;63.10;;;;;;5013149;28;20980;-51
2021/05/18 10:35:41;;;;;;;6.40;3.57;;;15.60;91.60;;;;;;5010717;28;20732;-50
2021/05/18 10:38:09;;;;;;;2.83;2.20;;;15.40;93.80;;;;;;5010357;28;20655;-49
2021/05/18 10:40:37;;;;;;;2.63;2.27;;;15.50;94.30;;;;;;5010401;28;20822;-49
2021/05/18 10:43:27;;;;;;;4.97;2.30;;;15.70;91.90;;;;;;5010080;28;20693;-49
2021/05/18 10:46:23;;;;;;;5.20;2.90;;;16.00;90.90;;;;;;5005667;28;20741;-50
2021/05/18 10:48:57;;;;;;;2.30;2.10;;;16.40;90.40;;;;;;5009603;28;20615;-50
2021/05/18 10:51:40;;;;;;;3.87;1.80;;;16.90;90.20;;;;;;5010767;28;20690;-51
2021/05/18 10:54:25;;;;;;;4.70;1.97;;;17.10;83.80;;;;;;5009985;28;21184;-50
2021/05/18 10:57:03;;;;;;;2.40;2.13;;;16.90;81.40;;;;;;5009954;28;20655;-50
2021/05/18 10:59:31;;;;;;;5.90;3.00;;;17.00;83.40;;;;;;5009614;28;20631;-50
2021/05/18 11:01:59;;;;;;;1.60;1.50;;;17.30;82.30;;;;;;5010049;28;20761;-50
2021/05/18 11:04:26;;;;;;;3.47;1.63;;;17.40;78.30;;;;;;5009921;28;21172;-49
2021/05/18 11:06:53;;;;;;;3.17;1.80;;;17.30;76.00;;;;;;5010132;28;20628;-50
2021/05/18 11:09:20;;;;;;;3.40;1.40;;;17.20;75.20;;;;;;5009377;28;20635;-50
2021/05/18 11:11:47;;;;;;;5.13;2.10;;;16.90;75.30;;;;;;5009653;28;20962;-50
2021/05/18 11:14:15;;;;;;;2.03;1.53;;;16.70;76.50;;;;;;5009769;28;20619;-50
2021/05/18 11:16:42;;;;;;;2.40;1.87;;;16.70;76.40;;;;;;5009612;28;20659;-52
2021/05/18 11:19:10;;;;;;;1.97;1.30;;;16.90;74.60;;;;;;5008800;28;20759;-51
2021/05/18 11:21:40;;;;;;;3.83;1.40;;;17.20;75.50;;;;;;5010324;28;21038;-52
2021/05/18 11:24:11;;;;;;;4.63;1.70;;;17.50;73.30;;;;;;5009912;28;20678;-52
2021/05/18 11:26:48;;;;;;;2.27;1.33;;;17.60;74.50;;;;;;5013759;28;20648;-50
2021/05/18 11:29:15;;;;;;;1.43;1.03;;;17.80;72.50;;;;;;5013460;28;20682;-49
2021/05/18 11:31:42;;;;;;;2.23;1.00;;;18.00;66.80;;;;;;5013933;28;20698;-50
2021/05/18 11:34:09;;;;;;;4.13;1.83;;;18.10;63.40;;;;;;5012943;28;20620;-52
2021/05/18 11:36:38;;;;;;;2.50;1.40;;;17.70;62.30;;;;;;5013698;28;20738;-51
2021/05/18 11:39:07;;;;;;;2.30;1.10;;;17.40;65.00;;;;;;5013418;28;20660;-52
2021/05/18 11:41:35;;;;;;;2.33;1.03;;;17.40;67.60;;;;;;5013696;28;21002;-51
2021/05/18 11:44:02;;;;;;;2.63;2.00;;;17.70;69.50;;;;;;5012992;28;20689;-52
2021/05/18 11:46:31;;;;;;;4.30;1.37;;;18.00;69.30;;;;;;5013107;28;21200;-50
2021/05/18 11:49:00;;;;;;;1.60;1.50;;;18.40;68.40;;;;;;5012213;28;21165;-52
2021/05/18 11:51:29;;;;;;;3.73;1.27;;;19.00;64.90;;;;;;5013473;28;20628;-52
2021/05/18 11:53:56;;;;;;;3.53;1.40;;;19.50;62.70;;;;;;5013640;28;20742;-50
2021/05/18 11:56:25;;;;;;;6.00;1.37;;;20.00;62.10;;;;;;5013253;28;20643;-53
2021/05/18 11:58:59;;;;;;;4.43;1.67;;;20.30;60.60;;;;;;5012968;28;20644;-50
2021/05/18 12:01:26;;;;;;;1.63;1.13;;;20.30;58.50;;;;;;5011718;28;20640;-50
2021/05/18 12:04:04;;;;;;;2.23;1.10;;;20.20;57.10;;;;;;5012099;28;20623;-50
2021/05/18 12:06:33;;;;;;;1.10;0.80;;;20.20;58.00;;;;;;5010461;28;20667;-51
2021/05/18 12:09:00;;;;;;;0.67;0.50;;;20.20;54.50;;;;;;5011926;28;20620;-50
2021/05/18 12:11:27;;;;;;;0.83;0.70;;;20.00;54.70;;;;;;5012500;28;20631;-50
2021/05/18 12:13:54;;;;;;;1.20;0.67;;;19.80;55.70;;;;;;5012880;28;20636;-50
2021/05/18 12:16:21;;;;;;;1.30;0.90;;;19.60;56.00;;;;;;5012395;28;20702;-50
2021/05/18 12:18:51;;;;;;;1.33;0.87;;;19.10;56.00;;;;;;5011853;28;20667;-50
2021/05/18 12:21:20;;;;;;;1.10;0.67;;;18.70;56.30;;;;;;5012386;28;20639;-50
2021/05/18 12:24:02;;;;;;;1.23;0.90;;;18.60;57.70;;;;;;5012771;28;20616;-51
2021/05/18 12:26:29;;;;;;;4.10;0.90;;;18.10;57.10;;;;;;5012370;28;20671;-50
2021/05/18 12:28:57;;;;;;;2.97;1.60;;;17.70;57.90;;;;;;5012064;28;20612;-49
2021/05/18 12:31:28;;;;;;;1.47;1.07;;;17.60;60.00;;;;;;5012065;28;20997;-49
2021/05/18 12:33:54;;;;;;;1.57;1.17;;;17.60;60.50;;;;;;5011376;28;20628;-50
2021/05/18 12:36:22;;;;;;;1.87;1.30;;;17.80;61.10;;;;;;5012729;28;20676;-51
2021/05/18 12:39:05;;;;;;;2.83;1.70;;;18.20;60.80;;;;;;5012209;28;21212;-50
2021/05/18 12:41:50;;;;;;;1.63;1.20;;;18.30;59.30;;;;;;5012337;28;20631;-50
2021/05/18 12:44:17;;;;;;;2.30;1.23;;;18.30;59.00;;;;;;5012478;28;20627;-50
2021/05/18 12:46:58;;;;;;;4.03;1.10;;;18.10;59.00;;;;;;5012232;28;20660;-50
2021/05/18 12:49:29;;;;;;;1.30;1.20;;;17.90;60.00;;;;;;5012379;28;20623;-50
2021/05/18 12:52:01;;;;;;;1.80;1.40;;;17.90;61.30;;;;;;5011416;28;20627;-51
2021/05/18 12:54:49;;;;;;;1.37;0.90;;;17.80;62.80;;;;;;5011622;28;20710;-50
2021/05/18 12:57:17;;;;;;;1.33;1.07;;;17.60;63.00;;;;;;5011654;28;20657;-52
2021/05/18 12:59:59;;;;;;;1.37;1.27;;;17.60;64.20;;;;;;5011619;28;21260;-50
2021/05/18 13:02:34;;;;;;;1.73;1.40;;;17.80;64.90;;;;;;5011748;28;20635;-49
2021/05/18 13:05:16;;;;;;;1.77;1.30;;;17.90;63.90;;;;;;5010433;28;21254;-51
2021/05/18 13:07:44;;;;;;;2.43;1.50;;;18.00;64.50;;;;;;5011848;28;21258;-50
2021/05/18 13:10:16;;;;;;;0.80;0.73;;;18.10;64.40;;;;;;5011591;28;20690;-50
2021/05/18 13:12:43;;;;;;;2.77;1.30;;;18.50;59.60;;;;;;5012183;28;20993;-50
2021/05/18 13:15:10;;;;;;;0.80;0.70;;;18.80;60.10;;;;;;5011972;28;20652;-51
2021/05/18 13:17:37;;;;;;;1.43;0.70;;;19.30;56.70;;;;;;5011238;28;20639;-50
2021/05/18 13:20:06;;;;;;;0.70;0.60;;;19.60;55.50;;;;;;5012105;28;21149;-50
2021/05/18 13:22:34;;;;;;;0.80;0.50;;;19.60;54.30;;;;;;5011599;28;20623;-52
2021/05/18 13:27:56;;;;;;;2.00;0.60;;;19.80;53.30;;;;;;5011489;28;20612;-52
2021/05/18 13:30:23;;;;;;;0.63;0.63;;;19.60;52.30;;;;;;5011806;28;20623;-54
2021/05/18 13:32:50;;;;;;;0.93;0.70;;;19.50;53.20;;;;;;5011677;28;21043;-51
2021/05/18 13:35:17;;;;;;;1.00;1.00;;;19.50;52.90;;;;;;5011438;28;20706;-53
2021/05/18 13:37:44;;;;;;;4.03;0.87;;;19.30;52.60;;;;;;5010971;28;20632;-52
2021/05/18 13:40:12;;;;;;;2.20;1.30;;;19.40;52.40;;;;;;5011551;28;20716;-53
2021/05/18 13:42:39;;;;;;;1.13;0.70;;;19.60;52.90;;;;;;5011247;28;20790;-51
2021/05/18 13:45:07;;;;;;;1.17;0.80;;;20.00;52.20;;;;;;5010700;28;20682;-50
2021/05/18 13:47:34;;;;;;;2.63;0.90;;;20.10;51.80;;;;;;5011036;28;20623;-51
2021/05/18 13:50:01;;;;;;;0.60;0.53;;;20.20;51.40;;;;;;5010223;28;20643;-50
2021/05/18 13:52:28;;;;;;;5.20;4.53;;;20.30;50.80;;;;;;5011221;28;20627;-51
2021/05/18 13:54:55;;;;;;;1.10;0.90;;;20.20;52.10;;;;;;5011028;28;20688;-50
2021/05/18 13:57:23;;;;;;;195.03;160.70;;;20.10;52.40;;;;;;5011251;28;20620;-51
2021/05/18 13:59:50;;;;;;;3.37;3.10;;;19.90;53.10;;;;;;5010983;28;20656;-50
2021/05/18 14:02:16;;;;;;;983.50;434.27;;;19.90;53.30;;;;;;5011203;28;21181;-49
2021/05/18 14:04:43;;;;;;;3.20;2.90;;;19.80;53.30;;;;;;5010434;28;20624;-48
2021/05/18 14:07:59;;;;;;;1.60;1.40;;;19.80;53.10;;;;;;5010744;28;20632;-48
2021/05/18 14:10:26;;;;;;;0.90;0.77;;;19.40;53.00;;;;;;4996764;28;21149;-49
2021/05/18 14:12:53;;;;;;;1.37;1.10;;;18.80;55.20;;;;;;5011007;28;20627;-48
2021/05/18 14:15:20;;;;;;;2.03;1.10;;;18.60;56.30;;;;;;5010444;28;21099;-48
2021/05/18 14:17:47;;;;;;;2.00;0.77;;;18.30;59.20;;;;;;5009603;28;21274;-48
2021/05/18 14:20:14;;;;;;;1.70;0.90;;;17.80;62.30;;;;;;5009621;28;20705;-49
2021/05/18 14:22:41;;;;;;;0.63;0.57;;;17.30;60.50;;;;;;5010359;28;20635;-49
2021/05/18 14:25:09;;;;;;;1.73;1.00;;;17.10;62.20;;;;;;5009761;28;20675;-50
2021/05/18 14:27:36;;;;;;;2.30;1.20;;;17.00;60.60;;;;;;5009199;28;20823;-49
2021/05/18 14:30:05;;;;;;;3.67;0.70;;;16.90;62.40;;;;;;5010204;28;20624;-48
2021/05/18 14:32:32;;;;;;;1.83;0.90;;;16.70;64.40;;;;;;5010173;28;20636;-48
2021/05/18 14:34:59;;;;;;;1.40;0.70;;;16.70;66.90;;;;;;5010101;28;20668;-48
2021/05/18 14:37:25;;;;;;;1.40;0.70;;;16.80;69.50;;;;;;5009579;28;20663;-49
2021/05/18 14:39:59;;;;;;;1.00;0.77;;;16.90;69.70;;;;;;5009675;28;20710;-49
2021/05/18 14:45:12;;;;;;;1.10;0.70;;;17.00;68.40;;;;;;5010558;28;20635;-49
2021/05/18 14:47:46;;;;;;;0.97;0.70;;;17.00;69.70;;;;;;5009872;28;20678;-49
2021/05/18 14:55:42;;;;;;;2.43;0.97;;;17.00;74.80;;;;;;5010210;28;20750;-49
2021/05/18 14:58:09;;;;;;;1.50;1.10;;;17.00;77.60;;;;;;5009036;28;20632;-49
2021/05/18 15:00:37;;;;;;;0.80;0.60;;;17.00;78.60;;;;;;5009873;28;20674;-49
2021/05/18 15:03:04;;;;;;;3.90;1.07;;;17.20;80.90;;;;;;5009643;28;20611;-49
2021/05/18 15:05:31;;;;;;;1.37;1.00;;;17.30;81.50;;;;;;5010291;28;21028;-49
2021/05/18 15:07:58;;;;;;;2.60;0.70;;;18.10;82.20;;;;;;5009221;28;20631;-50
2021/05/18 15:10:27;;;;;;;1.20;1.10;;;19.30;80.20;;;;;;5009130;28;20764;-47
2021/05/18 15:12:53;;;;;;;1.00;0.67;;;20.70;73.40;;;;;;5007159;28;21007;-48
2021/05/18 15:15:20;;;;;;;2.10;1.10;;;21.90;66.10;;;;;;5008933;28;20725;-49
2021/05/18 15:17:49;;;;;;;2.40;1.00;;;23.00;58.10;;;;;;5008098;28;20682;-49
2021/05/18 15:20:16;;;;;;;1.10;0.80;;;23.80;53.40;;;;;;5009629;28;20660;-48
2021/05/18 15:22:42;;;;;;;1.27;0.80;;;24.50;50.30;;;;;;5009353;28;20821;-48
2021/05/18 15:25:10;;;;;;;0.77;0.50;;;25.00;47.20;;;;;;5009594;28;20647;-48
2021/05/18 15:27:37;;;;;;;0.90;0.70;;;25.40;45.50;;;;;;5008979;28;21051;-48
2021/05/18 15:30:04;;;;;;;1.03;0.90;;;25.60;42.60;;;;;;5009514;28;20655;-48
2021/05/18 15:32:31;;;;;;;1.30;0.93;;;25.70;42.10;;;;;;5009362;28;20693;-49
2021/05/18 15:34:58;;;;;;;1.57;0.50;;;25.90;43.40;;;;;;5009246;28;20713;-50
2021/05/18 15:37:25;;;;;;;1.07;0.80;;;26.00;40.90;;;;;;5009698;28;20628;-49
2021/05/18 15:39:52;;;;;;;0.80;0.70;;;26.20;40.50;;;;;;5009590;28;21193;-49
2021/05/18 15:42:19;;;;;;;0.90;0.63;;;26.30;40.30;;;;;;5009342;28;21184;-48
2021/05/18 15:44:46;;;;;;;0.70;0.60;;;26.40;40.00;;;;;;5008890;28;20644;-48
2021/05/18 15:47:14;;;;;;;0.70;0.60;;;26.50;39.80;;;;;;5009723;28;20623;-49
2021/05/18 15:49:41;;;;;;;0.80;0.57;;;26.40;38.20;;;;;;5010201;28;20631;-49
2021/05/18 15:52:08;;;;;;;2.63;1.40;;;26.30;36.80;;;;;;5009837;28;21036;-49
2021/05/18 15:54:35;;;;;;;1.40;1.30;;;26.00;37.90;;;;;;5011279;28;20743;-49
2021/05/18 15:57:02;;;;;;;1.67;1.47;;;25.80;38.60;;;;;;5011742;28;20639;-49
2021/05/18 15:59:29;;;;;;;1.03;0.77;;;25.70;39.00;;;;;;5011995;28;20724;-49
2021/05/18 16:01:55;;;;;;;1.30;0.80;;;25.60;39.60;;;;;;5012306;28;20624;-49
2021/05/18 16:04:23;;;;;;;1.40;0.37;;;25.40;38.70;;;;;;5011646;28;20690;-49
2021/05/18 16:06:50;;;;;;;1.10;0.53;;;25.20;39.20;;;;;;5012161;28;20751;-50
2021/05/18 16:09:18;;;;;;;0.70;0.47;;;25.00;38.90;;;;;;5011262;28;20627;-49
2021/05/18 16:11:44;;;;;;;1.83;0.40;;;24.60;38.30;;;;;;5015395;28;20627;-49
2021/05/18 16:14:11;;;;;;;1.00;0.47;;;24.10;39.00;;;;;;5014669;28;20755;-48
2021/05/18 16:16:38;;;;;;;1.83;0.57;;;23.60;39.40;;;;;;5013318;28;20652;-49
2021/05/18 16:19:05;;;;;;;1.37;1.27;;;23.30;40.00;;;;;;5013964;28;20705;-49
2021/05/18 16:21:33;;;;;;;2.27;1.30;;;22.60;40.10;;;;;;5015044;28;20627;-48
2021/05/18 16:24:00;;;;;;;1.83;0.80;;;22.20;41.70;;;;;;5013100;28;20651;-49
2021/05/18 16:26:28;;;;;;;1.20;0.80;;;21.80;42.40;;;;;;5014526;28;21280;-47
2021/05/18 16:28:55;;;;;;;0.87;0.50;;;21.60;43.20;;;;;;5014434;28;21172;-52
2021/05/18 16:31:22;;;;;;;1.37;0.47;;;21.40;43.60;;;;;;5014437;28;20694;-53
2021/05/18 16:33:49;;;;;;;0.80;0.80;;;21.00;44.10;;;;;;5015007;28;20675;-54
2021/05/18 16:36:16;;;;;;;0.77;0.50;;;20.90;45.00;;;;;;5013272;28;20767;-53
2021/05/18 16:38:43;;;;;;;0.77;0.60;;;20.60;45.50;;;;;;5013859;28;20729;-54
2021/05/18 16:41:10;;;;;;;1.10;0.60;;;20.40;45.70;;;;;;5013428;28;20686;-54
2021/05/18 16:43:38;;;;;;;1.50;0.57;;;20.30;46.30;;;;;;5011068;28;20636;-54
2021/05/18 16:46:05;;;;;;;0.80;0.70;;;20.10;46.90;;;;;;5011126;28;20821;-54
2021/05/18 16:48:32;;;;;;;2.23;1.00;;;20.00;47.40;;;;;;5013426;28;20658;-53
2021/05/18 16:51:00;;;;;;;1.00;0.60;;;19.90;48.10;;;;;;5018387;28;20696;-54
2021/05/18 16:53:27;;;;;;;1.67;0.70;;;19.80;48.80;;;;;;5013719;28;20628;-54
2021/05/18 16:55:54;;;;;;;1.53;0.70;;;19.70;48.80;;;;;;5026307;28;20650;-54
2021/05/18 16:58:21;;;;;;;0.80;0.70;;;19.70;49.30;;;;;;5031382;28;21073;-54
2021/05/18 17:00:48;;;;;;;1.40;0.73;;;19.60;49.40;;;;;;5031620;28;20902;-54
2021/05/18 17:03:16;;;;;;;1.43;0.90;;;19.50;49.80;;;;;;5018470;28;20631;-53
2021/05/18 17:05:43;;;;;;;1.77;0.87;;;19.50;50.20;;;;;;5011850;28;21220;-54
2021/05/18 17:08:09;;;;;;;1.60;0.77;;;19.50;50.40;;;;;;5011533;28;20783;-54
2021/05/18 17:10:38;;;;;;;3.07;0.80;;;19.40;50.00;;;;;;5011854;28;20663;-53